EWG94P EDDS-LIML
Flight info
| Callsign | EWG94P |
|---|---|
| Flight time | 0h 50m |
| Altitude | 23000 |
| Route | ROTWE5B/25 ROTWE Y126 TUBLO N850 NATOR DCT TRA DCT RIPUS DCT GERSA DCT SOSON DCT ODINA SRN2S |
| Aircraft | A320/M-SDE3FGHIRWY/LB1 |
Departure
| Time | 2026-02-19 12:36 |
|---|---|
| Airport | Stuttgart Airport (EDDS) |
Arrival
| Time | 2026-02-19 13:27 |
|---|---|
| Airport | Milano Linate Airport (LIML) |
| Time | Latitude | Longitude | Altitude | Speed | Heading |
|---|---|---|---|---|---|
| 2026-02-19 12:11 | 48.68989 | 9.19898 | 1267 ft | 0 kts | 343° |
| 2026-02-19 12:22 | 48.68970 | 9.19907 | 1267 ft | 4 kts | 343° |
| 2026-02-19 12:22 | 48.68954 | 9.19915 | 1273 ft | 3 kts | 335° |
| 2026-02-19 12:23 | 48.68943 | 9.19927 | 1269 ft | 2 kts | 268° |
| 2026-02-19 12:23 | 48.68945 | 9.19943 | 1267 ft | 2 kts | 240° |
| 2026-02-19 12:23 | 48.68951 | 9.19958 | 1271 ft | 0 kts | 238° |
| 2026-02-19 12:27 | 48.68950 | 9.19955 | 1272 ft | 1 kts | 237° |
| 2026-02-19 12:27 | 48.68939 | 9.19928 | 1271 ft | 6 kts | 237° |
| 2026-02-19 12:28 | 48.68896 | 9.19868 | 1267 ft | 9 kts | 191° |
| 2026-02-19 12:28 | 48.68827 | 9.19984 | 1267 ft | 8 kts | 73° |
| 2026-02-19 12:28 | 48.68843 | 9.20067 | 1267 ft | 9 kts | 73° |
| 2026-02-19 12:29 | 48.68864 | 9.20177 | 1270 ft | 13 kts | 74° |
| 2026-02-19 12:29 | 48.68894 | 9.20336 | 1275 ft | 18 kts | 73° |
| 2026-02-19 12:29 | 48.68929 | 9.20518 | 1269 ft | 18 kts | 74° |
| 2026-02-19 12:29 | 48.68963 | 9.20696 | 1272 ft | 17 kts | 74° |
| 2026-02-19 12:30 | 48.68994 | 9.20862 | 1272 ft | 16 kts | 73° |
| 2026-02-19 12:30 | 48.69025 | 9.21018 | 1272 ft | 15 kts | 73° |
| 2026-02-19 12:30 | 48.69053 | 9.21168 | 1269 ft | 15 kts | 74° |
| 2026-02-19 12:30 | 48.69086 | 9.21342 | 1267 ft | 19 kts | 74° |
| 2026-02-19 12:31 | 48.69124 | 9.21544 | 1270 ft | 20 kts | 74° |
| 2026-02-19 12:31 | 48.69162 | 9.21743 | 1270 ft | 19 kts | 74° |
| 2026-02-19 12:31 | 48.69197 | 9.21931 | 1270 ft | 18 kts | 74° |
| 2026-02-19 12:31 | 48.69231 | 9.22107 | 1266 ft | 18 kts | 74° |
| 2026-02-19 12:32 | 48.69267 | 9.22300 | 1273 ft | 21 kts | 74° |
| 2026-02-19 12:32 | 48.69347 | 9.22716 | 1270 ft | 18 kts | 73° |
| 2026-02-19 12:32 | 48.69380 | 9.22895 | 1275 ft | 17 kts | 73° |
| 2026-02-19 12:33 | 48.69407 | 9.23038 | 1267 ft | 11 kts | 80° |
| 2026-02-19 12:33 | 48.69382 | 9.23133 | 1269 ft | 10 kts | 143° |
| 2026-02-19 12:33 | 48.69318 | 9.23169 | 1269 ft | 9 kts | 165° |
| 2026-02-19 12:33 | 48.69313 | 9.23171 | 1268 ft | 0 kts | 165° |
| 2026-02-19 12:34 | 48.69306 | 9.23174 | 1268 ft | 3 kts | 165° |
| 2026-02-19 12:34 | 48.69278 | 9.23186 | 1266 ft | 0 kts | 164° |
| 2026-02-19 12:34 | 48.69273 | 9.23188 | 1266 ft | 1 kts | 164° |
| 2026-02-19 12:35 | 48.69262 | 9.23193 | 1272 ft | 3 kts | 164° |
| 2026-02-19 12:35 | 48.69228 | 9.23208 | 1270 ft | 9 kts | 163° |
| 2026-02-19 12:35 | 48.69182 | 9.23195 | 1274 ft | 5 kts | 229° |
| 2026-02-19 12:35 | 48.69153 | 9.23063 | 1266 ft | 36 kts | 254° |
| 2026-02-19 12:36 | 48.69003 | 9.22272 | 1274 ft | 118 kts | 254° |
| 2026-02-19 12:36 | 48.68353 | 9.18874 | 1824 ft | 201 kts | 253° |
| 2026-02-19 12:36 | 48.67933 | 9.16708 | 2533 ft | 222 kts | 253° |
| 2026-02-19 12:37 | 48.67544 | 9.14540 | 3666 ft | 216 kts | 254° |
| 2026-02-19 12:37 | 48.67129 | 9.12260 | 4348 ft | 234 kts | 254° |
| 2026-02-19 12:37 | 48.66667 | 9.09806 | 4994 ft | 250 kts | 253° |
| 2026-02-19 12:37 | 48.66174 | 9.07236 | 5864 ft | 256 kts | 253° |
| 2026-02-19 12:38 | 48.65677 | 9.04663 | 6761 ft | 260 kts | 253° |
| 2026-02-19 12:38 | 48.65166 | 9.02023 | 7659 ft | 264 kts | 253° |
| 2026-02-19 12:38 | 48.64646 | 8.99332 | 8551 ft | 268 kts | 253° |
| 2026-02-19 12:38 | 48.64118 | 8.96603 | 9449 ft | 272 kts | 252° |
| 2026-02-19 12:39 | 48.63585 | 8.93854 | 10093 ft | 285 kts | 252° |
| 2026-02-19 12:39 | 48.63001 | 8.90860 | 10402 ft | 308 kts | 252° |
| 2026-02-19 12:39 | 48.62355 | 8.87666 | 10795 ft | 324 kts | 249° |
| 2026-02-19 12:39 | 48.61389 | 8.84588 | 11566 ft | 326 kts | 238° |
| 2026-02-19 12:40 | 48.60047 | 8.81809 | 12351 ft | 329 kts | 227° |
| 2026-02-19 12:40 | 48.56898 | 8.76659 | 13860 ft | 338 kts | 227° |
| 2026-02-19 12:40 | 48.55342 | 8.74089 | 14520 ft | 341 kts | 227° |
| 2026-02-19 12:41 | 48.53696 | 8.71369 | 15232 ft | 345 kts | 227° |
| 2026-02-19 12:41 | 48.52207 | 8.68583 | 15890 ft | 350 kts | 236° |
| 2026-02-19 12:41 | 48.51036 | 8.65291 | 16555 ft | 356 kts | 246° |
| 2026-02-19 12:41 | 48.50274 | 8.61695 | 17174 ft | 362 kts | 253° |
| 2026-02-19 12:42 | 48.49344 | 8.58223 | 17803 ft | 363 kts | 240° |
| 2026-02-19 12:42 | 48.48059 | 8.54956 | 18383 ft | 365 kts | 236° |
| 2026-02-19 12:42 | 48.46738 | 8.51838 | 18953 ft | 368 kts | 235° |
| 2026-02-19 12:42 | 48.45345 | 8.48598 | 19555 ft | 370 kts | 235° |
| 2026-02-19 12:43 | 48.43934 | 8.45364 | 20135 ft | 372 kts | 232° |
| 2026-02-19 12:43 | 48.42201 | 8.42442 | 20704 ft | 372 kts | 218° |
| 2026-02-19 12:43 | 48.40040 | 8.40319 | 21265 ft | 373 kts | 205° |
| 2026-02-19 12:43 | 48.37656 | 8.38874 | 21802 ft | 375 kts | 197° |
| 2026-02-19 12:44 | 48.35149 | 8.37825 | 22364 ft | 377 kts | 193° |
| 2026-02-19 12:44 | 48.29996 | 8.36159 | 22643 ft | 379 kts | 191° |
| 2026-02-19 12:44 | 48.27407 | 8.35372 | 22640 ft | 379 kts | 191° |
| 2026-02-19 12:45 | 48.24822 | 8.34578 | 22643 ft | 379 kts | 191° |
| 2026-02-19 12:45 | 48.22235 | 8.33774 | 22639 ft | 379 kts | 191° |
| 2026-02-19 12:45 | 48.19662 | 8.33005 | 22640 ft | 379 kts | 188° |
| 2026-02-19 12:45 | 48.17026 | 8.32640 | 22646 ft | 379 kts | 181° |
| 2026-02-19 12:46 | 48.14426 | 8.32788 | 22645 ft | 380 kts | 174° |
| 2026-02-19 12:46 | 48.11843 | 8.33379 | 22645 ft | 380 kts | 171° |
| 2026-02-19 12:46 | 48.09205 | 8.34035 | 22650 ft | 381 kts | 171° |
| 2026-02-19 12:46 | 48.06775 | 8.34623 | 22651 ft | 381 kts | 172° |
| 2026-02-19 12:47 | 48.04164 | 8.35251 | 22654 ft | 381 kts | 172° |
| 2026-02-19 12:47 | 48.01545 | 8.35881 | 22657 ft | 382 kts | 172° |
| 2026-02-19 12:47 | 47.98946 | 8.36506 | 22657 ft | 382 kts | 172° |
| 2026-02-19 12:47 | 47.96307 | 8.37141 | 22653 ft | 382 kts | 172° |
| 2026-02-19 12:48 | 47.93702 | 8.37768 | 22659 ft | 383 kts | 171° |
| 2026-02-19 12:48 | 47.88433 | 8.39035 | 22660 ft | 383 kts | 172° |
| 2026-02-19 12:48 | 47.85813 | 8.39664 | 22667 ft | 383 kts | 172° |
| 2026-02-19 12:49 | 47.83170 | 8.40298 | 22666 ft | 384 kts | 172° |
| 2026-02-19 12:49 | 47.80533 | 8.40930 | 22661 ft | 384 kts | 172° |
| 2026-02-19 12:49 | 47.77899 | 8.41560 | 22664 ft | 385 kts | 172° |
| 2026-02-19 12:49 | 47.75257 | 8.42192 | 22664 ft | 385 kts | 172° |
| 2026-02-19 12:50 | 47.72605 | 8.42825 | 22671 ft | 385 kts | 172° |
| 2026-02-19 12:50 | 47.70452 | 8.43339 | 22670 ft | 385 kts | 172° |
| 2026-02-19 12:50 | 47.67831 | 8.43880 | 22667 ft | 386 kts | 174° |
| 2026-02-19 12:50 | 47.65174 | 8.44266 | 22669 ft | 386 kts | 175° |
| 2026-02-19 12:51 | 47.62488 | 8.44655 | 22661 ft | 386 kts | 175° |
| 2026-02-19 12:51 | 47.59811 | 8.45048 | 22665 ft | 387 kts | 175° |
| 2026-02-19 12:51 | 47.57135 | 8.45442 | 22666 ft | 387 kts | 175° |
| 2026-02-19 12:51 | 47.54444 | 8.45839 | 22669 ft | 388 kts | 175° |
| 2026-02-19 12:52 | 47.52557 | 8.46116 | 22667 ft | 388 kts | 175° |
| 2026-02-19 12:52 | 47.47192 | 8.46906 | 22666 ft | 389 kts | 175° |
| 2026-02-19 12:52 | 47.44501 | 8.47301 | 22665 ft | 389 kts | 175° |
| 2026-02-19 12:53 | 47.41864 | 8.47687 | 22662 ft | 389 kts | 175° |
| 2026-02-19 12:53 | 47.39219 | 8.48075 | 22661 ft | 390 kts | 175° |
| 2026-02-19 12:53 | 47.36514 | 8.48471 | 22662 ft | 390 kts | 175° |
| 2026-02-19 12:53 | 47.33815 | 8.48865 | 22667 ft | 390 kts | 175° |
| 2026-02-19 12:54 | 47.31110 | 8.49260 | 22665 ft | 391 kts | 175° |
| 2026-02-19 12:54 | 47.28394 | 8.49656 | 22668 ft | 391 kts | 175° |
| 2026-02-19 12:54 | 47.25693 | 8.50049 | 22668 ft | 392 kts | 175° |
| 2026-02-19 12:54 | 47.22967 | 8.50446 | 22666 ft | 392 kts | 175° |
| 2026-02-19 12:55 | 47.20289 | 8.50836 | 22650 ft | 393 kts | 175° |
| 2026-02-19 12:55 | 47.17583 | 8.51230 | 22644 ft | 393 kts | 175° |
| 2026-02-19 12:55 | 47.14893 | 8.51622 | 22649 ft | 394 kts | 175° |
| 2026-02-19 12:55 | 47.12164 | 8.52018 | 22645 ft | 394 kts | 175° |
| 2026-02-19 12:56 | 47.09444 | 8.52413 | 22649 ft | 394 kts | 175° |
| 2026-02-19 12:56 | 47.03980 | 8.53205 | 22665 ft | 394 kts | 175° |
| 2026-02-19 12:56 | 47.01249 | 8.53600 | 22665 ft | 394 kts | 175° |
| 2026-02-19 12:57 | 46.98519 | 8.53996 | 22667 ft | 394 kts | 175° |
| 2026-02-19 12:57 | 46.95787 | 8.54389 | 22661 ft | 395 kts | 175° |
| 2026-02-19 12:57 | 46.93080 | 8.54777 | 22662 ft | 396 kts | 175° |
| 2026-02-19 12:57 | 46.90343 | 8.55171 | 22664 ft | 396 kts | 175° |
| 2026-02-19 12:58 | 46.87596 | 8.55565 | 22666 ft | 397 kts | 175° |
| 2026-02-19 12:58 | 46.84844 | 8.55960 | 22674 ft | 396 kts | 175° |
| 2026-02-19 12:58 | 46.82095 | 8.56355 | 22677 ft | 398 kts | 175° |
| 2026-02-19 12:58 | 46.79342 | 8.56748 | 22678 ft | 398 kts | 175° |
| 2026-02-19 12:59 | 46.76590 | 8.57142 | 22673 ft | 398 kts | 175° |
| 2026-02-19 12:59 | 46.73869 | 8.57532 | 22676 ft | 398 kts | 175° |
| 2026-02-19 12:59 | 46.71104 | 8.57926 | 22679 ft | 399 kts | 175° |
| 2026-02-19 12:59 | 46.68342 | 8.58320 | 22679 ft | 399 kts | 175° |
| 2026-02-19 13:00 | 46.65573 | 8.58715 | 22678 ft | 399 kts | 175° |
| 2026-02-19 13:00 | 46.60061 | 8.59500 | 22671 ft | 399 kts | 175° |
| 2026-02-19 13:00 | 46.57310 | 8.59891 | 22666 ft | 400 kts | 175° |
| 2026-02-19 13:01 | 46.54538 | 8.60284 | 22665 ft | 400 kts | 175° |
| 2026-02-19 13:01 | 46.51773 | 8.60676 | 22669 ft | 401 kts | 175° |
| 2026-02-19 13:01 | 46.49001 | 8.61069 | 22661 ft | 401 kts | 175° |
| 2026-02-19 13:01 | 46.46216 | 8.61462 | 22657 ft | 401 kts | 175° |
| 2026-02-19 13:02 | 46.43425 | 8.61857 | 22653 ft | 402 kts | 175° |
| 2026-02-19 13:02 | 46.40650 | 8.62249 | 22649 ft | 402 kts | 175° |
| 2026-02-19 13:02 | 46.37861 | 8.62642 | 22643 ft | 402 kts | 175° |
| 2026-02-19 13:02 | 46.35072 | 8.63035 | 22641 ft | 403 kts | 175° |
| 2026-02-19 13:03 | 46.32326 | 8.63422 | 22641 ft | 403 kts | 175° |
| 2026-02-19 13:03 | 46.29500 | 8.63819 | 22637 ft | 403 kts | 175° |
| 2026-02-19 13:03 | 46.26737 | 8.64207 | 22640 ft | 404 kts | 175° |
| 2026-02-19 13:03 | 46.23945 | 8.64599 | 22636 ft | 404 kts | 175° |
| 2026-02-19 13:04 | 46.21359 | 8.64961 | 22628 ft | 405 kts | 175° |
| 2026-02-19 13:04 | 46.15747 | 8.65748 | 22638 ft | 406 kts | 175° |
| 2026-02-19 13:04 | 46.12955 | 8.66193 | 22626 ft | 406 kts | 171° |
| 2026-02-19 13:05 | 46.10653 | 8.66953 | 22637 ft | 407 kts | 163° |
| 2026-02-19 13:05 | 46.08021 | 8.68408 | 22634 ft | 406 kts | 154° |
| 2026-02-19 13:05 | 46.05528 | 8.70336 | 22634 ft | 406 kts | 151° |
| 2026-02-19 13:05 | 46.03053 | 8.72292 | 22637 ft | 406 kts | 151° |
| 2026-02-19 13:06 | 46.00576 | 8.74231 | 22636 ft | 406 kts | 151° |
| 2026-02-19 13:06 | 45.98098 | 8.76164 | 22638 ft | 406 kts | 151° |
| 2026-02-19 13:06 | 45.95613 | 8.78102 | 22635 ft | 407 kts | 151° |
| 2026-02-19 13:06 | 45.93115 | 8.80049 | 22633 ft | 407 kts | 151° |
| 2026-02-19 13:07 | 45.90620 | 8.81993 | 22636 ft | 407 kts | 151° |
| 2026-02-19 13:07 | 45.88130 | 8.83931 | 22632 ft | 407 kts | 151° |
| 2026-02-19 13:07 | 45.85679 | 8.85838 | 22638 ft | 407 kts | 151° |
| 2026-02-19 13:07 | 45.83190 | 8.87772 | 22639 ft | 407 kts | 152° |
| 2026-02-19 13:08 | 45.80699 | 8.89706 | 22617 ft | 407 kts | 152° |
| 2026-02-19 13:08 | 45.75746 | 8.93545 | 22101 ft | 403 kts | 152° |
| 2026-02-19 13:08 | 45.73435 | 8.95333 | 21827 ft | 402 kts | 152° |
| 2026-02-19 13:09 | 45.70961 | 8.97245 | 21450 ft | 404 kts | 152° |
| 2026-02-19 13:09 | 45.68499 | 8.99147 | 20962 ft | 402 kts | 152° |
| 2026-02-19 13:09 | 45.65993 | 9.00873 | 20348 ft | 400 kts | 160° |
| 2026-02-19 13:09 | 45.63309 | 9.01820 | 19386 ft | 405 kts | 174° |
| 2026-02-19 13:10 | 45.60501 | 9.01858 | 18765 ft | 401 kts | 185° |
| 2026-02-19 13:10 | 45.57758 | 9.01615 | 18451 ft | 390 kts | 185° |
| 2026-02-19 13:10 | 45.55058 | 9.01406 | 18207 ft | 388 kts | 184° |
| 2026-02-19 13:10 | 45.52350 | 9.01206 | 17860 ft | 393 kts | 184° |
| 2026-02-19 13:11 | 45.49616 | 9.01004 | 17331 ft | 394 kts | 185° |
| 2026-02-19 13:11 | 45.46893 | 9.00818 | 16814 ft | 389 kts | 184° |
| 2026-02-19 13:11 | 45.44203 | 9.00649 | 16299 ft | 383 kts | 184° |
| 2026-02-19 13:11 | 45.41565 | 9.00495 | 15832 ft | 379 kts | 184° |
| 2026-02-19 13:12 | 45.38955 | 9.00354 | 15365 ft | 379 kts | 184° |
| 2026-02-19 13:12 | 45.33725 | 9.00100 | 14452 ft | 375 kts | 184° |
| 2026-02-19 13:12 | 45.31126 | 8.99988 | 13974 ft | 371 kts | 184° |
| 2026-02-19 13:13 | 45.28567 | 8.99883 | 13462 ft | 370 kts | 185° |
| 2026-02-19 13:13 | 45.25989 | 8.99777 | 12911 ft | 368 kts | 184° |
| 2026-02-19 13:13 | 45.23444 | 9.00013 | 12359 ft | 367 kts | 168° |
| 2026-02-19 13:13 | 45.21104 | 9.01411 | 11835 ft | 365 kts | 146° |
| 2026-02-19 13:14 | 45.19267 | 9.03846 | 11414 ft | 361 kts | 124° |
| 2026-02-19 13:14 | 45.18161 | 9.06934 | 11011 ft | 355 kts | 104° |
| 2026-02-19 13:14 | 45.17833 | 9.10354 | 10594 ft | 348 kts | 83° |
| 2026-02-19 13:14 | 45.18302 | 9.13647 | 10158 ft | 337 kts | 64° |
| 2026-02-19 13:15 | 45.19451 | 9.16464 | 9730 ft | 327 kts | 45° |
| 2026-02-19 13:15 | 45.21107 | 9.18575 | 9370 ft | 314 kts | 28° |
| 2026-02-19 13:15 | 45.23035 | 9.19834 | 9059 ft | 299 kts | 12° |
| 2026-02-19 13:15 | 45.25034 | 9.20252 | 8765 ft | 285 kts | 357° |
| 2026-02-19 13:16 | 45.26957 | 9.19897 | 8438 ft | 274 kts | 342° |
| 2026-02-19 13:16 | 45.30442 | 9.18316 | 7873 ft | 260 kts | 349° |
| 2026-02-19 13:16 | 45.31949 | 9.18098 | 7635 ft | 262 kts | 354° |
| 2026-02-19 13:17 | 45.33772 | 9.17929 | 7352 ft | 261 kts | 354° |
| 2026-02-19 13:17 | 45.35581 | 9.17739 | 7083 ft | 261 kts | 354° |
| 2026-02-19 13:17 | 45.37388 | 9.17541 | 6797 ft | 261 kts | 354° |
| 2026-02-19 13:17 | 45.39187 | 9.17343 | 6527 ft | 261 kts | 354° |
| 2026-02-19 13:18 | 45.41007 | 9.17143 | 6259 ft | 261 kts | 354° |
| 2026-02-19 13:18 | 45.42819 | 9.16946 | 6012 ft | 261 kts | 354° |
| 2026-02-19 13:18 | 45.44598 | 9.16754 | 5754 ft | 260 kts | 354° |
| 2026-02-19 13:18 | 45.46427 | 9.16556 | 5489 ft | 260 kts | 354° |
| 2026-02-19 13:19 | 45.48201 | 9.16365 | 5223 ft | 259 kts | 354° |
| 2026-02-19 13:19 | 45.49993 | 9.16172 | 4971 ft | 257 kts | 354° |
| 2026-02-19 13:19 | 45.51750 | 9.15983 | 4715 ft | 251 kts | 354° |
| 2026-02-19 13:19 | 45.53277 | 9.15819 | 4485 ft | 245 kts | 353° |
| 2026-02-19 13:20 | 45.54957 | 9.15636 | 4323 ft | 235 kts | 353° |
| 2026-02-19 13:20 | 45.58086 | 9.15292 | 4034 ft | 215 kts | 353° |
| 2026-02-19 13:20 | 45.59537 | 9.15134 | 3983 ft | 200 kts | 353° |
| 2026-02-19 13:21 | 45.60937 | 9.14978 | 3993 ft | 208 kts | 353° |
| 2026-02-19 13:21 | 45.62331 | 9.14818 | 3989 ft | 206 kts | 353° |
| 2026-02-19 13:21 | 45.63757 | 9.14866 | 3989 ft | 209 kts | 15° |
| 2026-02-19 13:21 | 45.64970 | 9.16014 | 3992 ft | 216 kts | 51° |
| 2026-02-19 13:22 | 45.65518 | 9.18001 | 3997 ft | 220 kts | 83° |
| 2026-02-19 13:22 | 45.65558 | 9.20193 | 3987 ft | 221 kts | 91° |
| 2026-02-19 13:22 | 45.65500 | 9.22380 | 3980 ft | 220 kts | 91° |
| 2026-02-19 13:22 | 45.65252 | 9.24524 | 3982 ft | 221 kts | 117° |
| 2026-02-19 13:23 | 45.64246 | 9.26141 | 3983 ft | 221 kts | 153° |
| 2026-02-19 13:23 | 45.62820 | 9.26689 | 4015 ft | 206 kts | 182° |
| 2026-02-19 13:23 | 45.61408 | 9.26564 | 3875 ft | 204 kts | 189° |
| 2026-02-19 13:23 | 45.60025 | 9.26378 | 3586 ft | 202 kts | 187° |
| 2026-02-19 13:24 | 45.58615 | 9.26301 | 3132 ft | 203 kts | 184° |
| 2026-02-19 13:24 | 45.55769 | 9.26312 | 2309 ft | 199 kts | 182° |
| 2026-02-19 13:25 | 45.53253 | 9.26438 | 1872 ft | 166 kts | 182° |
| 2026-02-19 13:25 | 45.52181 | 9.26503 | 1710 ft | 145 kts | 182° |
| 2026-02-19 13:25 | 45.51207 | 9.26557 | 1349 ft | 139 kts | 183° |
| 2026-02-19 13:25 | 45.50255 | 9.26601 | 1087 ft | 136 kts | 182° |
| 2026-02-19 13:26 | 45.49307 | 9.26835 | 1054 ft | 143 kts | 165° |
| 2026-02-19 13:26 | 45.48375 | 9.27282 | 894 ft | 137 kts | 174° |
| 2026-02-19 13:26 | 45.47404 | 9.27429 | 813 ft | 145 kts | 180° |
| 2026-02-19 13:26 | 45.46391 | 9.27515 | 578 ft | 145 kts | 180° |
| 2026-02-19 13:27 | 45.45432 | 9.27617 | 383 ft | 134 kts | 180° |
| 2026-02-19 13:27 | 45.44636 | 9.27688 | 364 ft | 77 kts | 175° |
| 2026-02-19 13:27 | 45.44285 | 9.27728 | 367 ft | 39 kts | 176° |
| 2026-02-19 13:27 | 45.44146 | 9.27767 | 364 ft | 13 kts | 138° |
| 2026-02-19 13:28 | 45.44148 | 9.27854 | 365 ft | 9 kts | 51° |
| 2026-02-19 13:28 | 45.44268 | 9.27983 | 367 ft | 14 kts | 30° |
| 2026-02-19 13:28 | 45.44347 | 9.27994 | 363 ft | 9 kts | 354° |
| 2026-02-19 13:29 | 45.44421 | 9.27982 | 366 ft | 9 kts | 354° |
| 2026-02-19 13:29 | 45.44490 | 9.27975 | 367 ft | 11 kts | 355° |
| 2026-02-19 13:29 | 45.44578 | 9.27966 | 367 ft | 14 kts | 355° |
| 2026-02-19 13:29 | 45.44683 | 9.27954 | 365 ft | 17 kts | 355° |
| 2026-02-19 13:30 | 45.44806 | 9.27942 | 367 ft | 19 kts | 355° |
| 2026-02-19 13:30 | 45.44938 | 9.27902 | 366 ft | 20 kts | 348° |
| 2026-02-19 13:30 | 45.45081 | 9.27880 | 363 ft | 22 kts | 355° |
| 2026-02-19 13:30 | 45.45222 | 9.27877 | 365 ft | 20 kts | 10° |
| 2026-02-19 13:31 | 45.45343 | 9.27950 | 365 ft | 19 kts | 26° |
| 2026-02-19 13:31 | 45.45458 | 9.27978 | 363 ft | 17 kts | 359° |
| 2026-02-19 13:31 | 45.45585 | 9.27979 | 363 ft | 19 kts | 0° |
| 2026-02-19 13:31 | 45.45711 | 9.27982 | 366 ft | 18 kts | 1° |
| 2026-02-19 13:32 | 45.45826 | 9.27984 | 367 ft | 14 kts | 0° |
| 2026-02-19 13:32 | 45.45949 | 9.27968 | 366 ft | 5 kts | 0° |
| 2026-02-19 13:32 | 45.45973 | 9.27968 | 363 ft | 3 kts | 0° |
| 2026-02-19 13:33 | 45.45984 | 9.27968 | 363 ft | 0 kts | 1° |